createdAt,value
2022-12-23T00:00:00.913Z,5.73
2022-12-23T00:03:02.630Z,6.27
2022-12-23T00:06:12.152Z,6.10
2022-12-23T00:09:13.755Z,6.33
2022-12-23T00:12:34.147Z,5.60
2022-12-23T00:15:35.734Z,5.77
2022-12-23T00:18:38.058Z,5.60
2022-12-23T00:21:39.715Z,5.43
2022-12-23T00:24:45.680Z,4.90
2022-12-23T00:28:01.274Z,5.10
2022-12-23T00:31:06.218Z,4.90
2022-12-23T00:34:09.237Z,5.30
2022-12-23T00:37:10.807Z,5.67
2022-12-23T00:40:32.353Z,5.60
2022-12-23T00:43:33.941Z,6.17
2022-12-23T00:46:35.680Z,6.03
2022-12-23T00:49:43.514Z,6.00
2022-12-23T00:52:45.103Z,6.30
2022-12-23T00:55:47.758Z,6.60
2022-12-23T00:58:49.353Z,7.10
2022-12-23T01:02:09.788Z,6.17
2022-12-23T01:05:30.089Z,7.07
2022-12-23T01:08:31.711Z,6.33
2022-12-23T01:11:34.053Z,6.63
2022-12-23T01:14:36.379Z,6.40
2022-12-23T01:17:38.004Z,6.17
2022-12-23T01:20:40.820Z,5.80
2022-12-23T01:23:42.422Z,7.80
2022-12-23T01:26:44.108Z,7.27
2022-12-23T01:29:46.155Z,7.13
2022-12-23T01:32:48.212Z,7.60
2022-12-23T01:35:49.973Z,6.77
2022-12-23T01:38:52.009Z,7.47
2022-12-23T01:42:12.174Z,8.40
2022-12-23T01:45:24.612Z,7.53
2022-12-23T01:48:27.401Z,6.30
2022-12-23T01:51:30.123Z,6.50
2022-12-23T01:54:32.298Z,6.37
2022-12-23T01:57:36.055Z,5.90
2022-12-23T02:00:57.829Z,5.70
2022-12-23T02:04:04.118Z,5.80
2022-12-23T02:07:24.629Z,5.67
2022-12-23T02:10:36.055Z,6.27
2022-12-23T02:14:26.045Z,5.67
2022-12-23T02:17:46.841Z,6.70
2022-12-23T02:21:44.064Z,6.97
2022-12-23T02:25:15.584Z,7.93
2022-12-23T02:28:35.748Z,9.43
2022-12-23T02:31:55.172Z,9.17
2022-12-23T02:35:04.821Z,10.10
2022-12-23T02:38:13.762Z,9.17
2022-12-23T02:41:47.552Z,10.00
2022-12-23T02:45:03.243Z,10.03
2022-12-23T02:48:13.834Z,9.23
2022-12-23T02:51:16.532Z,9.70
2022-12-23T02:54:26.864Z,9.33
2022-12-23T02:57:37.368Z,9.73
2022-12-23T03:00:41.642Z,10.27
2022-12-23T03:03:45.508Z,9.67
2022-12-23T03:06:51.104Z,9.87
2022-12-23T03:10:16.225Z,8.93
2022-12-23T03:13:39.458Z,9.43
2022-12-23T03:16:54.012Z,8.20
2022-12-23T03:19:58.308Z,7.80
2022-12-23T03:23:22.291Z,8.53
2022-12-23T03:26:31.210Z,7.87
2022-12-23T03:29:53.418Z,7.73
2022-12-23T03:32:57.070Z,8.17
2022-12-23T03:36:07.280Z,7.70
2022-12-23T03:39:13.250Z,7.60
2022-12-23T03:42:24.596Z,8.17
2022-12-23T03:45:40.297Z,7.97
2022-12-23T03:49:11.539Z,7.67
2022-12-23T03:52:21.282Z,7.60
2022-12-23T03:55:38.685Z,7.20
2022-12-23T03:59:19.982Z,7.10
2022-12-23T04:02:52.743Z,8.33
2022-12-23T04:05:59.687Z,8.13
2022-12-23T04:09:03.092Z,7.10
2022-12-23T04:12:05.318Z,8.03
2022-12-23T04:15:12.502Z,8.73
2022-12-23T04:18:16.279Z,8.00
2022-12-23T04:21:17.858Z,7.87
2022-12-23T04:24:19.450Z,8.03
2022-12-23T04:27:21.034Z,7.20
2022-12-23T04:30:25.530Z,7.20
2022-12-23T04:33:29.815Z,6.33
2022-12-23T04:36:31.433Z,6.33
2022-12-23T04:39:32.997Z,5.90
2022-12-23T04:42:34.798Z,5.40
2022-12-23T04:45:36.393Z,5.07
2022-12-23T04:48:37.960Z,5.13
2022-12-23T04:51:39.517Z,4.60
2022-12-23T04:54:45.974Z,5.23
2022-12-23T04:57:48.259Z,4.73
2022-12-23T05:00:49.936Z,4.90
2022-12-23T05:03:51.569Z,5.13
2022-12-23T05:06:53.186Z,4.90
2022-12-23T05:09:54.822Z,5.10
2022-12-23T05:12:56.417Z,6.13
2022-12-23T05:15:58.105Z,5.37
2022-12-23T05:18:59.757Z,5.80
2022-12-23T05:22:01.332Z,6.80
2022-12-23T05:25:03.000Z,5.70
2022-12-23T05:28:05.766Z,5.70
2022-12-23T05:31:08.502Z,5.27
2022-12-23T05:34:10.316Z,5.17
2022-12-23T05:37:11.928Z,4.80
2022-12-23T05:40:15.069Z,4.70
2022-12-23T05:43:20.632Z,4.80
2022-12-23T05:46:26.560Z,4.80
2022-12-23T05:49:28.771Z,4.90
2022-12-23T05:52:30.381Z,5.20
2022-12-23T05:55:32.240Z,5.60
2022-12-23T05:58:34.014Z,4.83
2022-12-23T06:01:35.731Z,5.30
2022-12-23T06:04:37.393Z,5.93
2022-12-23T06:07:40.412Z,5.43
2022-12-23T06:10:41.970Z,5.80
2022-12-23T06:13:43.570Z,5.23
2022-12-23T06:16:45.240Z,6.40
2022-12-23T06:19:47.488Z,6.03
2022-12-23T06:22:49.144Z,5.90
2022-12-23T06:25:57.701Z,5.50
2022-12-23T06:28:59.321Z,6.30
2022-12-23T06:32:01.174Z,6.27
2022-12-23T06:35:02.907Z,5.43
2022-12-23T06:38:08.779Z,5.80
2022-12-23T06:41:13.379Z,6.53
2022-12-23T06:44:15.013Z,6.63
2022-12-23T06:47:16.602Z,6.70
2022-12-23T06:50:18.227Z,12.97
2022-12-23T06:53:19.832Z,8.80
2022-12-23T06:56:21.851Z,12.10
2022-12-23T06:59:23.457Z,11.07
2022-12-23T07:02:25.173Z,10.17
2022-12-23T07:05:30.643Z,10.67
2022-12-23T07:08:36.562Z,10.03
2022-12-23T07:11:38.223Z,6.87
2022-12-23T07:14:39.835Z,6.90
2022-12-23T07:17:41.429Z,7.03
2022-12-23T07:20:43.038Z,6.80
2022-12-23T07:23:44.632Z,5.03
2022-12-23T07:26:46.396Z,4.73
2022-12-23T07:29:47.955Z,4.40
2022-12-23T07:32:50.846Z,3.67
2022-12-23T07:35:57.211Z,3.10
2022-12-23T07:38:58.846Z,3.43
2022-12-23T07:42:24.869Z,4.10
2022-12-23T07:45:22.238Z,3.50
2022-12-23T07:48:23.891Z,3.70
2022-12-23T07:51:25.488Z,3.90
2022-12-23T07:54:27.080Z,3.67
2022-12-23T07:57:29.370Z,2.73
2022-12-23T08:00:31.013Z,2.90
2022-12-23T08:03:32.744Z,3.20
2022-12-23T08:06:37.381Z,3.40
2022-12-23T08:09:39.017Z,3.10
2022-12-23T08:12:40.696Z,3.10
2022-12-23T08:15:42.287Z,3.90
2022-12-23T08:18:44.342Z,4.10
2022-12-23T08:21:45.931Z,3.90
2022-12-23T08:24:47.550Z,3.40
2022-12-23T08:27:50.455Z,3.10
2022-12-23T08:30:52.170Z,2.90
2022-12-23T08:33:56.729Z,3.03
2022-12-23T08:36:58.343Z,2.60
2022-12-23T08:39:59.920Z,2.70
2022-12-23T08:43:02.400Z,2.33
2022-12-23T08:46:05.085Z,2.00
2022-12-23T08:49:07.294Z,3.03
2022-12-23T08:52:08.893Z,2.53
2022-12-23T08:55:10.525Z,2.80
2022-12-23T08:58:13.675Z,3.03
2022-12-23T09:01:17.996Z,3.00
2022-12-23T09:04:19.603Z,3.73
2022-12-23T09:07:21.249Z,3.47
2022-12-23T09:10:23.370Z,3.53
2022-12-23T09:13:32.741Z,3.53
2022-12-23T09:16:36.901Z,3.30
2022-12-23T09:19:38.590Z,3.50
2022-12-23T09:22:40.552Z,4.03
2022-12-23T09:25:42.133Z,5.10
2022-12-23T09:28:43.720Z,4.23
2022-12-23T09:31:45.372Z,4.70
2022-12-23T09:34:47.039Z,4.40
2022-12-23T09:37:48.627Z,4.53
2022-12-23T09:40:50.231Z,4.50
2022-12-23T09:44:12.689Z,4.17
2022-12-23T09:47:22.497Z,4.20
2022-12-23T09:50:29.125Z,4.20
2022-12-23T09:54:05.676Z,4.20
2022-12-23T09:57:36.227Z,3.63
2022-12-23T10:00:48.886Z,3.63
2022-12-23T10:04:21.800Z,3.67
2022-12-23T10:07:38.721Z,3.77
2022-12-23T10:11:13.095Z,3.63
2022-12-23T10:14:23.034Z,3.30
2022-12-23T10:17:35.005Z,3.10
2022-12-23T10:20:42.901Z,3.70
2022-12-23T10:23:48.860Z,2.40
2022-12-23T10:26:54.641Z,3.10
2022-12-23T10:30:42.009Z,2.37
2022-12-23T10:33:46.271Z,2.13
2022-12-23T10:37:02.423Z,2.13
2022-12-23T10:40:25.322Z,2.30
2022-12-23T10:44:12.947Z,2.10
2022-12-23T10:47:24.880Z,2.27
2022-12-23T10:50:45.920Z,2.37
2022-12-23T10:53:52.048Z,2.33
2022-12-23T10:56:55.132Z,2.17
2022-12-23T10:59:57.749Z,3.10
2022-12-23T11:03:28.770Z,2.30
2022-12-23T11:06:37.239Z,3.70
2022-12-23T11:09:50.636Z,4.93
2022-12-23T11:12:53.629Z,3.67
2022-12-23T11:16:11.325Z,4.40
2022-12-23T11:19:16.730Z,4.97
2022-12-23T11:22:26.563Z,4.30
2022-12-23T11:25:30.221Z,4.50
2022-12-23T11:28:34.069Z,5.43
2022-12-23T11:31:36.710Z,4.90
2022-12-23T11:34:38.631Z,4.97
2022-12-23T11:37:43.472Z,5.20
2022-12-23T11:40:47.187Z,5.90
2022-12-23T11:44:01.191Z,6.20
2022-12-23T11:47:36.762Z,7.70
2022-12-23T11:50:40.577Z,7.07
2022-12-23T11:53:43.067Z,6.97
2022-12-23T11:56:47.984Z,6.53
2022-12-23T11:59:55.119Z,6.10
2022-12-23T12:03:00.380Z,7.70
2022-12-23T12:06:05.370Z,7.23
2022-12-23T12:09:07.054Z,7.43
2022-12-23T12:12:16.692Z,7.47
2022-12-23T12:15:28.465Z,7.00
2022-12-23T12:18:30.920Z,7.00
2022-12-23T12:21:37.535Z,7.90
2022-12-23T12:24:44.204Z,7.47
2022-12-23T12:28:01.249Z,7.33
2022-12-23T12:31:05.181Z,8.30
2022-12-23T12:34:15.760Z,7.50
2022-12-23T12:37:41.849Z,7.30
2022-12-23T12:40:51.054Z,6.60
2022-12-23T12:44:15.944Z,7.00
2022-12-23T12:47:56.061Z,7.53
2022-12-23T12:51:10.931Z,7.30
2022-12-23T12:54:30.065Z,7.00
2022-12-23T12:57:35.513Z,7.40
2022-12-23T13:00:54.277Z,7.60
2022-12-23T13:04:14.932Z,9.50
2022-12-23T13:07:37.326Z,8.10
2022-12-23T13:10:38.907Z,7.70
2022-12-23T13:13:52.684Z,8.00
2022-12-23T13:17:08.522Z,9.10
2022-12-23T13:20:27.478Z,8.90
2022-12-23T13:23:45.680Z,9.20
2022-12-23T13:26:59.401Z,7.97
2022-12-23T13:30:17.665Z,8.97
2022-12-23T13:33:45.873Z,9.13
2022-12-23T13:37:01.753Z,9.37
2022-12-23T13:40:24.739Z,9.37
2022-12-23T13:43:39.476Z,9.93
2022-12-23T13:47:12.008Z,9.00
2022-12-23T13:50:20.056Z,9.90
2022-12-23T13:54:03.859Z,9.23
2022-12-23T13:57:32.690Z,10.37
2022-12-23T14:00:34.877Z,10.97
2022-12-23T14:03:38.629Z,10.93
2022-12-23T14:06:40.695Z,10.03
2022-12-23T14:09:42.318Z,10.67
2022-12-23T14:12:43.993Z,10.17
2022-12-23T14:15:56.112Z,9.53
2022-12-23T14:19:35.777Z,9.37
2022-12-23T14:22:45.222Z,10.20
2022-12-23T14:25:53.832Z,11.40
2022-12-23T14:29:08.846Z,8.77
2022-12-23T14:32:27.093Z,9.63
2022-12-23T14:35:36.988Z,10.60
2022-12-23T14:39:12.575Z,12.00
2022-12-23T14:42:32.406Z,11.40
2022-12-23T14:45:36.017Z,10.50
2022-12-23T14:48:44.274Z,10.40
2022-12-23T14:51:45.928Z,10.53
2022-12-23T14:55:13.263Z,10.17
2022-12-23T14:58:30.118Z,10.20
2022-12-23T15:02:13.946Z,9.10
2022-12-23T15:05:22.741Z,9.20
2022-12-23T15:08:31.992Z,9.43
2022-12-23T15:11:35.770Z,10.20
2022-12-23T15:14:45.754Z,10.37
2022-12-23T15:17:48.386Z,9.90
2022-12-23T15:21:10.022Z,8.80
2022-12-23T15:24:20.353Z,8.40
2022-12-23T15:27:27.990Z,9.10
2022-12-23T15:30:36.353Z,8.30
2022-12-23T15:37:00.593Z,6.43
2022-12-23T15:40:12.534Z,6.37
2022-12-23T15:43:20.497Z,4.77
2022-12-23T15:46:28.980Z,4.40
2022-12-23T15:49:31.703Z,4.00
2022-12-23T15:52:33.339Z,4.50
2022-12-23T15:55:38.714Z,3.20
2022-12-23T15:58:42.427Z,2.97
2022-12-23T16:01:44.111Z,2.97
2022-12-23T16:04:56.597Z,3.00
2022-12-23T16:08:13.754Z,3.63
2022-12-23T16:11:19.441Z,3.03
2022-12-23T16:14:27.651Z,2.93
2022-12-23T16:17:34.494Z,2.50
2022-12-23T16:20:42.989Z,2.63
2022-12-23T16:23:50.937Z,2.20
2022-12-23T16:26:55.528Z,1.90
2022-12-23T16:30:01.337Z,1.93
2022-12-23T16:33:23.396Z,2.20
2022-12-23T16:36:25.013Z,4.33
2022-12-23T16:39:26.657Z,2.40
2022-12-23T16:42:28.269Z,2.00
2022-12-23T16:45:32.616Z,2.40
2022-12-23T16:48:38.255Z,1.93
2022-12-23T16:51:40.956Z,1.60
2022-12-23T16:54:43.293Z,1.80
2022-12-23T16:57:45.307Z,2.20
2022-12-23T17:00:47.219Z,3.77
2022-12-23T17:03:49.398Z,3.47
2022-12-23T17:06:51.065Z,5.07
2022-12-23T17:09:52.793Z,5.17
2022-12-23T17:12:54.421Z,3.00
2022-12-23T17:15:56.041Z,0.60
2022-12-23T17:18:57.679Z,0.80
2022-12-23T17:22:02.501Z,0.90
2022-12-23T17:25:04.634Z,0.80
2022-12-23T17:28:10.727Z,0.87
2022-12-23T17:31:15.491Z,0.80
2022-12-23T17:34:22.384Z,0.77
2022-12-23T17:37:24.505Z,0.90
2022-12-23T17:40:26.176Z,1.00
2022-12-23T17:43:27.907Z,0.90
2022-12-23T17:46:29.847Z,1.00
2022-12-23T17:49:31.489Z,0.93
2022-12-23T17:52:33.100Z,1.10
2022-12-23T17:55:34.797Z,0.90
2022-12-23T17:58:36.776Z,1.20
2022-12-23T18:01:38.894Z,2.13
2022-12-23T18:04:40.694Z,3.20
2022-12-23T18:07:42.284Z,3.50
2022-12-23T18:10:44.588Z,3.87
2022-12-23T18:13:49.251Z,3.50
2022-12-23T18:16:51.177Z,3.47
2022-12-23T18:19:52.988Z,3.30
2022-12-23T18:22:55.091Z,2.70
2022-12-23T18:25:57.545Z,2.93
2022-12-23T18:28:59.172Z,2.97
2022-12-23T18:32:00.959Z,2.20
2022-12-23T18:35:02.755Z,2.30
2022-12-23T18:38:04.408Z,2.30
2022-12-23T18:41:06.398Z,2.37
2022-12-23T18:44:20.332Z,3.33
2022-12-23T18:47:22.115Z,4.50
2022-12-23T18:50:24.111Z,7.63
2022-12-23T18:53:25.831Z,8.63
2022-12-23T18:56:27.638Z,3.60
2022-12-23T18:59:30.773Z,4.70
2022-12-23T19:02:32.499Z,3.47
2022-12-23T19:05:34.145Z,4.70
2022-12-23T19:08:37.381Z,3.37
2022-12-23T19:11:38.948Z,2.63
2022-12-23T19:14:40.684Z,2.80
2022-12-23T19:17:42.595Z,2.40
2022-12-23T19:20:45.827Z,2.53
2022-12-23T19:23:47.740Z,3.43
2022-12-23T19:26:49.450Z,2.87
2022-12-23T19:29:57.573Z,4.13
2022-12-23T19:32:59.314Z,4.43
2022-12-23T19:36:00.938Z,4.13
2022-12-23T19:39:03.487Z,2.80
2022-12-23T19:42:05.242Z,4.57
2022-12-23T19:45:09.125Z,2.80
2022-12-23T19:48:10.676Z,3.70
2022-12-23T19:51:14.237Z,4.67
2022-12-23T19:54:16.315Z,4.90
2022-12-23T19:57:17.990Z,3.17
2022-12-23T20:00:19.637Z,3.07
2022-12-23T20:03:21.283Z,2.30
2022-12-23T20:06:30.237Z,2.17
2022-12-23T20:09:31.860Z,2.17
2022-12-23T20:12:33.504Z,1.60
2022-12-23T20:15:35.150Z,2.90
2022-12-23T20:18:37.655Z,1.97
2022-12-23T20:21:39.473Z,2.43
2022-12-23T20:24:41.188Z,2.43
2022-12-23T20:27:42.910Z,2.33
2022-12-23T20:30:46.017Z,2.10
2022-12-23T20:33:48.778Z,2.57
2022-12-23T20:36:50.434Z,2.77
2022-12-23T20:39:53.519Z,2.13
2022-12-23T20:42:55.216Z,2.87
2022-12-23T20:45:56.949Z,2.67
2022-12-23T20:48:58.533Z,2.03
2022-12-23T20:52:00.243Z,1.90
2022-12-23T20:55:01.880Z,2.17
2022-12-23T20:58:23.462Z,2.17
2022-12-23T21:01:35.747Z,2.40
2022-12-23T21:04:37.453Z,2.10
2022-12-23T21:07:39.084Z,2.00
2022-12-23T21:10:40.957Z,3.43
2022-12-23T21:13:43.833Z,2.10
2022-12-23T21:16:45.751Z,2.50
2022-12-23T21:19:47.435Z,3.53
2022-12-23T21:22:50.655Z,2.27
2022-12-23T21:25:52.523Z,2.00
2022-12-23T21:28:58.954Z,1.50
2022-12-23T21:32:00.788Z,1.30
2022-12-23T21:35:02.912Z,1.70
2022-12-23T21:38:04.479Z,1.73
2022-12-23T21:41:09.421Z,1.60
2022-12-23T21:44:14.572Z,1.77
2022-12-23T21:47:16.234Z,2.40
2022-12-23T21:50:17.868Z,2.43
2022-12-23T21:53:19.530Z,2.27
2022-12-23T21:56:26.771Z,2.43
2022-12-23T21:59:34.574Z,2.40
2022-12-23T22:02:36.798Z,2.10
2022-12-23T22:05:38.451Z,1.97
2022-12-23T22:08:40.266Z,2.30
2022-12-23T22:11:42.241Z,2.03
2022-12-23T22:14:43.825Z,3.53
2022-12-23T22:17:45.433Z,2.40
2022-12-23T22:20:47.269Z,2.37
2022-12-23T22:23:50.649Z,4.60
2022-12-23T22:26:52.269Z,1.93
2022-12-23T22:29:53.928Z,2.40
2022-12-23T22:32:55.548Z,2.10
2022-12-23T22:35:57.216Z,2.87
2022-12-23T22:39:00.143Z,2.27
2022-12-23T22:42:01.837Z,1.97
2022-12-23T22:45:04.211Z,2.80
2022-12-23T22:48:06.081Z,2.17
2022-12-23T22:51:16.554Z,3.00
2022-12-23T22:54:18.155Z,2.53
2022-12-23T22:57:19.772Z,2.83
2022-12-23T23:00:21.424Z,2.60
2022-12-23T23:03:23.875Z,2.23
2022-12-23T23:06:34.055Z,3.37
2022-12-23T23:09:36.059Z,3.10
2022-12-23T23:12:37.697Z,4.17
2022-12-23T23:15:39.398Z,2.77
2022-12-23T23:18:41.087Z,3.60
2022-12-23T23:21:42.749Z,3.70
2022-12-23T23:24:44.466Z,3.00
2022-12-23T23:27:46.041Z,2.40
2022-12-23T23:30:47.609Z,2.93
2022-12-23T23:33:49.227Z,3.30
2022-12-23T23:36:50.882Z,2.93
2022-12-23T23:39:52.532Z,3.00
2022-12-23T23:42:54.406Z,2.63
2022-12-23T23:45:55.991Z,2.60
2022-12-23T23:48:57.699Z,2.97
2022-12-23T23:51:59.239Z,2.40
2022-12-23T23:55:00.900Z,2.30
2022-12-23T23:58:02.635Z,2.40
